Terminal Aerodrome Forecast
Issued by NWS

Home | Current Version | Previous Version | Text Only | Print | Product List | Glossary On
Versions: 1 2 3 4 5 6 7 8 9 10 11 12 13 14 15 16 17 18 19 20 21
000
FTUS41 KOKX 250500
TAFSWF
TAF
KSWF 250529Z 2506/2612 VRB03KT P6SM SCT250
     FM251400 35006KT P6SM SKC
     FM251700 29005KT P6SM FEW050
     FM252000 25007KT P6SM FEW050
     FM260100 VRB02KT P6SM FEW250
      AMD NOT SKED=

USA.gov is the U.S. government's official web portal to all federal, state and local government web resources and services.